createdAt,value
2019-05-21T00:01:56.885Z,17.82
2019-05-21T00:04:28.857Z,17.75
2019-05-21T00:07:00.565Z,17.60
2019-05-21T00:09:32.265Z,17.49
2019-05-21T00:12:03.948Z,17.52
2019-05-21T00:14:35.675Z,17.55
2019-05-21T00:17:07.328Z,17.68
2019-05-21T00:19:38.678Z,17.67
2019-05-21T00:22:10.438Z,17.51
2019-05-21T00:24:42.127Z,17.43
2019-05-21T00:27:14.050Z,17.55
2019-05-21T00:30:21.963Z,17.61
2019-05-21T00:33:29.866Z,17.59
2019-05-21T00:36:38.898Z,17.60
2019-05-21T00:39:46.897Z,17.53
2019-05-21T00:42:36.476Z,17.45
2019-05-21T00:45:10.175Z,17.42
2019-05-21T00:47:41.628Z,17.32
2019-05-21T00:50:13.661Z,17.28
2019-05-21T00:52:45.560Z,17.10
2019-05-21T00:55:17.103Z,17.30
2019-05-21T00:57:47.668Z,17.13
2019-05-21T01:00:19.081Z,17.12
2019-05-21T01:02:50.886Z,17.01
2019-05-21T01:05:22.395Z,16.88
2019-05-21T01:07:53.058Z,16.80
2019-05-21T01:10:24.063Z,16.67
2019-05-21T01:12:57.263Z,16.71
2019-05-21T01:15:27.921Z,16.65
2019-05-21T01:17:59.132Z,16.68
2019-05-21T01:20:29.898Z,16.61
2019-05-21T01:23:02.546Z,16.53
2019-05-21T01:25:33.212Z,16.48
2019-05-21T01:28:04.417Z,16.50
2019-05-21T01:30:36.077Z,16.52
2019-05-21T01:33:07.833Z,16.58
2019-05-21T01:35:39.491Z,16.61
2019-05-21T01:38:11.042Z,16.59
2019-05-21T01:40:42.796Z,16.63
2019-05-21T01:43:13.668Z,16.62
2019-05-21T01:45:44.876Z,16.77
2019-05-21T01:48:15.546Z,16.95
2019-05-21T01:50:46.558Z,16.93
2019-05-21T01:53:18.850Z,16.89
2019-05-21T01:55:50.683Z,16.94
2019-05-21T01:58:22.332Z,17.05
2019-05-21T02:00:55.216Z,17.01
2019-05-21T02:03:27.382Z,17.05
2019-05-21T02:05:58.936Z,17.05
2019-05-21T02:08:30.591Z,17.11
2019-05-21T02:11:02.255Z,17.17
2019-05-21T02:13:33.803Z,17.20
2019-05-21T02:16:05.367Z,17.29
2019-05-21T02:18:36.904Z,17.32
2019-05-21T02:21:07.576Z,17.40
2019-05-21T02:23:38.677Z,17.44
2019-05-21T02:26:09.239Z,17.43
2019-05-21T02:28:40.556Z,17.45
2019-05-21T02:31:12.098Z,17.47
2019-05-21T02:33:43.873Z,17.53
2019-05-21T02:36:15.518Z,17.56
2019-05-21T02:38:47.380Z,17.55
2019-05-21T02:41:19.756Z,17.55
2019-05-21T02:43:52.224Z,17.60
2019-05-21T02:46:22.888Z,17.58
2019-05-21T02:48:54.210Z,17.45
2019-05-21T02:51:26.272Z,17.43
2019-05-21T02:53:58.339Z,17.30
2019-05-21T02:56:29.897Z,17.21
2019-05-21T02:59:01.546Z,17.16
2019-05-21T03:01:44.459Z,17.15
2019-05-21T03:04:16.223Z,17.13
2019-05-21T03:06:47.772Z,17.14
2019-05-21T03:09:19.656Z,17.18
2019-05-21T03:11:51.210Z,17.47
2019-05-21T03:14:23.124Z,17.50
2019-05-21T03:16:55.013Z,18.16
2019-05-21T03:19:26.675Z,18.42
2019-05-21T03:21:58.647Z,18.60
2019-05-21T03:24:30.171Z,18.63
2019-05-21T03:27:02.033Z,18.71
2019-05-21T03:29:33.586Z,18.73
2019-05-21T03:32:05.453Z,18.72
2019-05-21T03:34:37.057Z,18.74
2019-05-21T03:37:08.765Z,18.87
2019-05-21T03:39:39.422Z,18.87
2019-05-21T03:42:10.639Z,18.71
2019-05-21T03:44:58.296Z,18.70
2019-05-21T03:47:17.221Z,18.81
2019-05-21T03:49:49.290Z,18.76
2019-05-21T03:52:20.938Z,18.83
2019-05-21T03:54:52.600Z,18.94
2019-05-21T03:57:24.354Z,18.81
2019-05-21T03:59:56.118Z,18.89
2019-05-21T04:02:28.392Z,18.96
2019-05-21T04:05:00.039Z,18.99
2019-05-21T04:07:31.791Z,19.09
2019-05-21T04:10:04.675Z,19.14
2019-05-21T04:12:36.128Z,19.02
2019-05-21T04:15:18.429Z,18.94
2019-05-21T04:17:57.764Z,19.01
2019-05-21T04:20:29.219Z,19.08
2019-05-21T04:23:00.975Z,18.99
2019-05-21T04:25:32.731Z,18.89
2019-05-21T04:28:04.500Z,18.77
2019-05-21T04:30:35.843Z,18.87
2019-05-21T04:33:07.800Z,18.90
2019-05-21T04:35:39.554Z,19.02
2019-05-21T04:38:11.121Z,19.05
2019-05-21T04:40:42.969Z,19.03
2019-05-21T04:43:14.545Z,18.95
2019-05-21T04:45:46.485Z,18.92
2019-05-21T04:48:18.140Z,18.80
2019-05-21T04:50:49.897Z,18.80
2019-05-21T04:53:22.263Z,18.93
2019-05-21T04:55:54.036Z,18.97
2019-05-21T04:58:25.681Z,19.03
2019-05-21T05:00:57.127Z,19.04
2019-05-21T05:03:29.395Z,19.00
2019-05-21T05:06:00.956Z,19.02
2019-05-21T05:08:32.708Z,19.14
2019-05-21T05:11:04.388Z,19.13
2019-05-21T05:13:36.017Z,19.15
2019-05-21T05:16:07.574Z,19.24
2019-05-21T05:18:39.531Z,19.21
2019-05-21T05:21:11.079Z,19.28
2019-05-21T05:23:42.843Z,19.28
2019-05-21T05:26:13.683Z,19.39
2019-05-21T05:28:44.828Z,19.38
2019-05-21T05:31:16.581Z,19.39
2019-05-21T05:33:48.256Z,19.33
2019-05-21T05:36:19.782Z,19.51
2019-05-21T05:38:51.441Z,19.61
2019-05-21T05:41:23.091Z,19.89
2019-05-21T05:43:54.758Z,19.81
2019-05-21T05:46:26.400Z,19.91
2019-05-21T05:49:01.834Z,19.96
2019-05-21T05:51:33.045Z,19.97
2019-05-21T05:54:07.712Z,19.97
2019-05-21T05:56:38.344Z,20.08
2019-05-21T05:59:14.009Z,20.09
2019-05-21T06:01:44.118Z,20.14
2019-05-21T06:04:15.769Z,20.20
2019-05-21T06:06:48.152Z,20.27
2019-05-21T06:09:19.900Z,20.42
2019-05-21T06:11:51.867Z,20.46
2019-05-21T06:14:23.726Z,20.77
2019-05-21T06:16:55.308Z,20.98
2019-05-21T06:19:27.151Z,21.20
2019-05-21T06:21:58.892Z,21.39
2019-05-21T06:24:30.548Z,21.49
2019-05-21T06:27:02.617Z,21.56
2019-05-21T06:29:38.384Z,21.59
2019-05-21T06:32:07.970Z,21.80
2019-05-21T06:34:39.522Z,21.92
2019-05-21T06:37:11.281Z,21.81
2019-05-21T06:39:43.143Z,21.97
2019-05-21T06:42:14.803Z,21.85
2019-05-21T06:44:46.758Z,21.84
2019-05-21T06:47:18.426Z,21.67
2019-05-21T06:49:49.966Z,21.63
2019-05-21T06:52:22.095Z,21.71
2019-05-21T06:54:53.692Z,21.83
2019-05-21T06:57:25.542Z,21.97
2019-05-21T06:59:57.510Z,21.70
2019-05-21T07:02:29.195Z,21.58
2019-05-21T07:05:01.357Z,21.60
2019-05-21T07:07:33.286Z,21.60
2019-05-21T07:10:07.363Z,21.58
2019-05-21T07:12:38.960Z,21.44
2019-05-21T07:15:10.903Z,21.27
2019-05-21T07:17:43.182Z,21.24
2019-05-21T07:20:16.257Z,21.13
2019-05-21T07:22:47.830Z,21.07
2019-05-21T07:25:21.230Z,21.22
2019-05-21T07:27:53.085Z,21.20
2019-05-21T07:30:24.845Z,21.15
2019-05-21T07:32:57.829Z,21.17
2019-05-21T07:35:29.694Z,21.08
2019-05-21T07:38:01.544Z,21.11
2019-05-21T07:40:33.406Z,21.10
2019-05-21T07:43:05.370Z,21.11
2019-05-21T07:45:37.129Z,21.28
2019-05-21T07:48:08.578Z,21.29
2019-05-21T07:50:40.333Z,21.36
2019-05-21T07:53:12.338Z,21.39
2019-05-21T07:55:43.847Z,21.44
2019-05-21T07:58:15.193Z,21.54
2019-05-21T08:00:48.394Z,21.79
2019-05-21T08:03:20.659Z,21.94
2019-05-21T08:05:52.118Z,21.90
2019-05-21T08:08:23.977Z,21.98
2019-05-21T08:10:55.933Z,22.03
2019-05-21T08:13:27.582Z,22.22
2019-05-21T08:15:59.238Z,22.36
2019-05-21T08:18:31.201Z,22.16
2019-05-21T08:21:03.061Z,22.11
2019-05-21T08:23:34.715Z,22.31
2019-05-21T08:26:06.368Z,22.41
2019-05-21T08:28:38.433Z,22.44
2019-05-21T08:31:10.047Z,22.77
2019-05-21T08:33:42.055Z,22.70
2019-05-21T08:36:13.609Z,22.67
2019-05-21T08:38:46.592Z,22.74
2019-05-21T08:41:18.445Z,22.93
2019-05-21T08:43:50.313Z,22.79
2019-05-21T08:46:21.763Z,22.85
2019-05-21T08:48:53.517Z,22.98
2019-05-21T08:51:25.172Z,22.97
2019-05-21T08:53:57.044Z,23.01
2019-05-21T08:56:28.809Z,23.09
2019-05-21T08:59:00.555Z,23.22
2019-05-21T09:01:32.620Z,23.36
2019-05-21T09:04:04.268Z,23.70
2019-05-21T09:06:35.715Z,23.88
2019-05-21T09:09:07.475Z,23.80
2019-05-21T09:11:39.234Z,23.63
2019-05-21T09:14:10.989Z,23.61
2019-05-21T09:16:46.883Z,23.58
2019-05-21T09:19:22.182Z,23.51
2019-05-21T09:21:53.634Z,23.56
2019-05-21T09:24:26.311Z,23.72
2019-05-21T09:26:57.763Z,23.48
2019-05-21T09:29:29.756Z,23.44
2019-05-21T09:32:02.783Z,23.58
2019-05-21T09:34:48.033Z,23.40
2019-05-21T09:37:19.181Z,23.42
2019-05-21T09:39:42.490Z,23.59
2019-05-21T09:42:14.245Z,23.63
2019-05-21T09:44:45.598Z,23.46
2019-05-21T09:47:17.146Z,23.33
2019-05-21T09:49:48.593Z,23.28
2019-05-21T09:52:20.368Z,23.34
2019-05-21T09:54:52.631Z,23.46
2019-05-21T09:57:28.580Z,23.51
2019-05-21T10:00:07.913Z,23.90
2019-05-21T10:02:40.033Z,23.83
2019-05-21T10:05:12.044Z,23.95
2019-05-21T10:07:43.820Z,23.85
2019-05-21T10:10:15.459Z,23.87
2019-05-21T10:12:48.142Z,23.90
2019-05-21T10:15:19.651Z,23.80
2019-05-21T10:17:51.132Z,24.10
2019-05-21T10:20:23.209Z,24.18
2019-05-21T10:22:54.750Z,24.23
2019-05-21T10:25:26.717Z,24.47
2019-05-21T10:27:58.483Z,24.44
2019-05-21T10:30:30.435Z,24.53
2019-05-21T10:33:02.092Z,24.59
2019-05-21T10:35:33.750Z,24.58
2019-05-21T10:38:05.714Z,24.75
2019-05-21T10:40:37.666Z,24.52
2019-05-21T10:43:09.117Z,24.72
2019-05-21T10:45:41.190Z,24.36
2019-05-21T10:48:12.840Z,24.27
2019-05-21T10:50:44.598Z,24.38
2019-05-21T10:53:16.561Z,24.51
2019-05-21T10:55:49.137Z,24.44
2019-05-21T10:58:20.800Z,24.31
2019-05-21T11:00:56.820Z,24.38
2019-05-21T11:03:46.327Z,24.20
2019-05-21T11:06:18.181Z,24.30
2019-05-21T11:08:49.836Z,24.28
2019-05-21T11:11:21.447Z,24.33
2019-05-21T11:13:52.937Z,24.26
2019-05-21T11:16:24.593Z,24.31
2019-05-21T11:18:56.247Z,24.28
2019-05-21T11:21:28.214Z,24.25
2019-05-21T11:23:59.992Z,24.25
2019-05-21T11:26:31.939Z,24.39
2019-05-21T11:29:03.491Z,24.40
2019-05-21T11:31:37.698Z,24.52
2019-05-21T11:34:09.557Z,24.65
2019-05-21T11:36:40.904Z,25.01
2019-05-21T11:39:12.770Z,24.84
2019-05-21T11:41:44.323Z,24.97
2019-05-21T11:44:16.179Z,25.14
2019-05-21T11:46:47.629Z,25.41
2019-05-21T11:49:19.353Z,25.46
2019-05-21T11:51:50.739Z,25.54
2019-05-21T11:54:22.807Z,25.87
2019-05-21T11:56:54.255Z,26.18
2019-05-21T11:59:25.699Z,26.80
2019-05-21T12:01:58.076Z,26.42
2019-05-21T12:04:29.521Z,26.48
2019-05-21T12:07:03.574Z,26.46
2019-05-21T12:09:34.571Z,26.40
2019-05-21T12:12:06.335Z,26.26
2019-05-21T12:14:38.091Z,26.26
2019-05-21T12:17:09.849Z,26.36
2019-05-21T12:19:41.804Z,26.23
2019-05-21T12:22:13.371Z,26.19
2019-05-21T12:24:45.132Z,26.45
2019-05-21T12:27:16.980Z,26.68
2019-05-21T12:29:48.642Z,26.69
2019-05-21T12:32:21.279Z,26.61
2019-05-21T12:34:52.968Z,26.75
2019-05-21T12:37:25.032Z,26.43
2019-05-21T12:39:56.584Z,26.23
2019-05-21T12:42:28.447Z,26.23
2019-05-21T12:45:00.120Z,26.23
2019-05-21T12:47:32.077Z,26.14
2019-05-21T12:50:04.126Z,26.02
2019-05-21T12:52:35.889Z,26.08
2019-05-21T12:55:08.458Z,26.34
2019-05-21T12:57:40.933Z,26.53
2019-05-21T13:00:14.272Z,26.37
2019-05-21T13:02:45.919Z,26.56
2019-05-21T13:05:17.844Z,26.34
2019-05-21T13:07:49.397Z,26.63
2019-05-21T13:10:21.153Z,26.63
2019-05-21T13:12:53.013Z,26.83
2019-05-21T13:15:25.688Z,26.83
2019-05-21T13:17:57.145Z,26.79
2019-05-21T13:20:29.216Z,26.96
2019-05-21T13:23:00.657Z,26.66
2019-05-21T13:25:32.107Z,26.59
2019-05-21T13:28:04.057Z,26.63
2019-05-21T13:30:35.828Z,26.62
2019-05-21T13:33:07.788Z,26.77
2019-05-21T13:35:39.650Z,26.63
2019-05-21T13:38:13.634Z,26.60
2019-05-21T13:40:45.417Z,26.27
2019-05-21T13:43:20.871Z,26.45
2019-05-21T13:45:50.368Z,26.50
2019-05-21T13:48:22.257Z,26.53
2019-05-21T13:50:53.878Z,26.52
2019-05-21T13:53:25.967Z,26.56
2019-05-21T13:55:57.506Z,26.36
2019-05-21T13:58:29.262Z,26.44
2019-05-21T14:01:02.725Z,26.40
2019-05-21T14:03:36.538Z,26.29
2019-05-21T14:06:08.323Z,26.37
2019-05-21T14:08:39.742Z,26.56
2019-05-21T14:11:11.834Z,26.50
2019-05-21T14:13:43.353Z,26.56
2019-05-21T14:16:15.147Z,26.56
2019-05-21T14:18:46.692Z,26.67
2019-05-21T14:21:18.665Z,26.71
2019-05-21T14:23:50.480Z,27.07
2019-05-21T14:26:23.598Z,26.80
2019-05-21T14:28:55.263Z,26.56
2019-05-21T14:31:26.813Z,26.57
2019-05-21T14:33:58.669Z,26.35
2019-05-21T14:36:30.446Z,26.35
2019-05-21T14:39:05.806Z,26.28
2019-05-21T14:41:35.167Z,26.36
2019-05-21T14:44:07.028Z,26.33
2019-05-21T14:46:38.630Z,26.14
2019-05-21T14:49:10.365Z,26.11
2019-05-21T14:51:42.197Z,25.98
2019-05-21T14:54:26.040Z,25.95
2019-05-21T14:56:48.385Z,26.16
2019-05-21T14:59:21.080Z,26.02
2019-05-21T15:01:53.024Z,25.88
2019-05-21T15:04:24.720Z,26.06
2019-05-21T15:06:56.431Z,26.16
2019-05-21T15:09:27.779Z,26.07
2019-05-21T15:11:59.635Z,25.84
2019-05-21T15:14:31.293Z,25.66
2019-05-21T15:17:03.176Z,25.82
2019-05-21T15:19:34.713Z,25.76
2019-05-21T15:22:07.200Z,25.78
2019-05-21T15:24:39.354Z,25.73
2019-05-21T15:27:11.102Z,25.95
2019-05-21T15:29:42.664Z,26.05
2019-05-21T15:32:14.376Z,26.17
2019-05-21T15:34:46.177Z,26.08
2019-05-21T15:37:18.036Z,26.37
2019-05-21T15:39:49.784Z,26.18
2019-05-21T15:42:21.238Z,25.99
2019-05-21T15:44:52.893Z,26.06
2019-05-21T15:47:24.451Z,25.88
2019-05-21T15:49:56.106Z,25.85
2019-05-21T15:52:27.979Z,25.91
2019-05-21T15:54:59.417Z,25.77
2019-05-21T15:57:31.277Z,25.56
2019-05-21T16:00:02.824Z,25.57
2019-05-21T16:02:35.032Z,25.83
2019-05-21T16:05:08.041Z,25.62
2019-05-21T16:07:39.617Z,25.58
2019-05-21T16:10:11.394Z,25.48
2019-05-21T16:12:43.225Z,25.31
2019-05-21T16:15:14.811Z,25.57
2019-05-21T16:17:46.855Z,25.44
2019-05-21T16:20:18.438Z,25.71
2019-05-21T16:22:50.062Z,25.63
2019-05-21T16:25:21.497Z,25.46
2019-05-21T16:27:53.191Z,25.19
2019-05-21T16:30:24.872Z,25.02
2019-05-21T16:32:56.469Z,25.01
2019-05-21T16:35:28.370Z,25.05
2019-05-21T16:37:59.718Z,25.02
2019-05-21T16:40:32.379Z,24.71
2019-05-21T16:43:03.852Z,24.64
2019-05-21T16:45:35.572Z,24.70
2019-05-21T16:48:07.202Z,24.63
2019-05-21T16:50:38.626Z,24.45
2019-05-21T16:53:10.627Z,24.40
2019-05-21T16:55:41.958Z,24.37
2019-05-21T16:58:13.583Z,24.26
2019-05-21T17:00:44.908Z,24.14
2019-05-21T17:03:16.783Z,24.07
2019-05-21T17:05:48.268Z,24.00
2019-05-21T17:08:20.771Z,23.85
2019-05-21T17:10:52.380Z,23.82
2019-05-21T17:13:23.728Z,23.72
2019-05-21T17:15:55.063Z,23.71
2019-05-21T17:18:26.746Z,23.63
2019-05-21T17:20:58.102Z,23.51
2019-05-21T17:23:29.628Z,23.37
2019-05-21T17:26:01.080Z,23.43
2019-05-21T17:28:32.653Z,23.26
2019-05-21T17:31:04.383Z,23.26
2019-05-21T17:33:35.876Z,23.15
2019-05-21T17:36:08.534Z,23.03
2019-05-21T17:38:40.977Z,22.96
2019-05-21T17:41:12.355Z,22.90
2019-05-21T17:43:43.740Z,22.87
2019-05-21T17:46:15.183Z,22.84
2019-05-21T17:48:46.718Z,22.74
2019-05-21T17:51:17.548Z,22.70
2019-05-21T17:53:49.287Z,22.55
2019-05-21T17:56:20.844Z,22.44
2019-05-21T17:58:53.415Z,22.47
2019-05-21T18:01:25.519Z,22.37
2019-05-21T18:03:57.062Z,22.34
2019-05-21T18:06:29.621Z,22.30
2019-05-21T18:09:02.343Z,22.27
2019-05-21T18:11:34.675Z,22.16
2019-05-21T18:14:07.335Z,22.19
2019-05-21T18:16:39.056Z,22.14
2019-05-21T18:19:11.813Z,22.13
2019-05-21T18:21:43.363Z,22.08
2019-05-21T18:24:14.938Z,22.06
2019-05-21T18:26:46.494Z,22.03
2019-05-21T18:29:17.867Z,21.99
2019-05-21T18:31:49.933Z,21.88
2019-05-21T18:34:21.779Z,21.86
2019-05-21T18:36:53.678Z,21.87
2019-05-21T18:39:26.709Z,21.80
2019-05-21T18:41:58.139Z,21.84
2019-05-21T18:44:29.736Z,21.72
2019-05-21T18:47:01.191Z,21.71
2019-05-21T18:49:32.834Z,21.56
2019-05-21T18:52:04.865Z,21.52
2019-05-21T18:54:36.402Z,21.54
2019-05-21T18:57:08.616Z,21.60
2019-05-21T18:59:40.125Z,21.53
2019-05-21T19:02:14.322Z,21.56
2019-05-21T19:04:45.687Z,21.46
2019-05-21T19:07:17.201Z,21.44
2019-05-21T19:09:48.648Z,21.42
2019-05-21T19:12:20.022Z,21.42
2019-05-21T19:14:51.502Z,21.37
2019-05-21T19:17:34.691Z,21.23
2019-05-21T19:19:54.831Z,21.28
2019-05-21T19:22:27.664Z,21.27
2019-05-21T19:25:00.267Z,21.14
2019-05-21T19:27:33.781Z,21.09
2019-05-21T19:30:07.561Z,21.00
2019-05-21T19:32:39.863Z,21.01
2019-05-21T19:35:12.031Z,20.99
2019-05-21T19:37:43.788Z,20.98
2019-05-21T19:40:15.836Z,20.85
2019-05-21T19:42:54.903Z,20.83
2019-05-21T19:45:21.210Z,20.91
2019-05-21T19:47:52.602Z,20.81
2019-05-21T19:50:24.071Z,20.86
2019-05-21T19:52:57.421Z,20.85
2019-05-21T19:55:29.982Z,20.69
2019-05-21T19:58:01.742Z,20.63
2019-05-21T20:00:35.235Z,20.65
2019-05-21T20:03:08.010Z,20.65
2019-05-21T20:05:39.777Z,20.53
2019-05-21T20:08:11.642Z,20.58
2019-05-21T20:10:44.051Z,20.55
2019-05-21T20:13:15.664Z,20.48
2019-05-21T20:15:47.538Z,20.49
2019-05-21T20:18:19.703Z,20.56
2019-05-21T20:20:51.101Z,20.53
2019-05-21T20:23:24.633Z,20.52
2019-05-21T20:25:57.305Z,20.44
2019-05-21T20:28:28.874Z,20.46
2019-05-21T20:31:01.243Z,20.43
2019-05-21T20:33:34.745Z,20.38
2019-05-21T20:36:06.915Z,20.36
2019-05-21T20:38:38.995Z,20.33
2019-05-21T20:41:10.950Z,20.29
2019-05-21T20:43:42.795Z,20.21
2019-05-21T20:46:15.894Z,20.23
2019-05-21T20:48:49.281Z,20.22
2019-05-21T20:51:21.552Z,20.22
2019-05-21T20:53:54.485Z,20.12
2019-05-21T20:56:27.007Z,20.28
2019-05-21T20:58:58.663Z,20.32
2019-05-21T21:01:32.368Z,20.33
2019-05-21T21:04:05.146Z,20.24
2019-05-21T21:06:37.211Z,20.17
2019-05-21T21:09:10.540Z,20.26
2019-05-21T21:11:42.775Z,20.12
2019-05-21T21:14:18.351Z,20.16
2019-05-21T21:16:50.353Z,20.14
2019-05-21T21:19:22.449Z,20.17
2019-05-21T21:21:54.004Z,20.22
2019-05-21T21:24:26.013Z,20.14
2019-05-21T21:26:58.850Z,20.25
2019-05-21T21:29:30.709Z,20.23
2019-05-21T21:32:02.364Z,20.36
2019-05-21T21:34:34.123Z,20.32
2019-05-21T21:37:07.309Z,20.21
2019-05-21T21:39:38.755Z,20.22
2019-05-21T21:42:11.953Z,20.15
2019-05-21T21:44:44.961Z,20.16
2019-05-21T21:47:17.192Z,20.22
2019-05-21T21:49:50.223Z,20.10
2019-05-21T21:52:22.134Z,20.12
2019-05-21T21:54:54.191Z,20.05
2019-05-21T21:57:26.118Z,20.12
2019-05-21T21:59:57.943Z,20.12
2019-05-21T22:02:33.942Z,20.07
2019-05-21T22:05:09.038Z,19.97
2019-05-21T22:07:40.788Z,20.06
2019-05-21T22:10:12.443Z,19.96
2019-05-21T22:12:45.164Z,19.96
2019-05-21T22:15:16.674Z,19.96
2019-05-21T22:17:48.742Z,20.00
2019-05-21T22:20:21.415Z,19.95
2019-05-21T22:22:53.072Z,19.95
2019-05-21T22:25:24.978Z,19.91
2019-05-21T22:27:56.691Z,20.01
2019-05-21T22:30:29.680Z,20.05
2019-05-21T22:33:02.666Z,19.95
2019-05-21T22:35:34.445Z,19.87
2019-05-21T22:38:05.869Z,19.77
2019-05-21T22:40:37.733Z,19.70
2019-05-21T22:43:09.542Z,19.75
2019-05-21T22:45:41.202Z,19.72
2019-05-21T22:48:12.697Z,19.75
2019-05-21T22:50:44.456Z,19.79
2019-05-21T22:53:16.519Z,19.92
2019-05-21T22:55:48.069Z,19.89
2019-05-21T22:58:19.822Z,19.91
2019-05-21T23:00:53.123Z,19.90
2019-05-21T23:03:25.160Z,19.95
2019-05-21T23:05:57.057Z,19.82
2019-05-21T23:08:28.599Z,19.81
2019-05-21T23:11:00.457Z,19.90
2019-05-21T23:13:32.006Z,19.90
2019-05-21T23:16:04.178Z,19.82
2019-05-21T23:18:56.487Z,19.73
2019-05-21T23:21:31.653Z,19.55
2019-05-21T23:24:05.943Z,19.72
2019-05-21T23:26:37.423Z,19.58
2019-05-21T23:29:08.969Z,19.50
2019-05-21T23:31:40.523Z,19.58
2019-05-21T23:34:13.845Z,19.48
2019-05-21T23:36:47.722Z,19.39
2019-05-21T23:39:21.733Z,19.48
2019-05-21T23:41:53.596Z,19.52
2019-05-21T23:44:25.546Z,19.46
2019-05-21T23:46:57.009Z,19.51
2019-05-21T23:49:28.762Z,19.32
2019-05-21T23:52:00.521Z,19.33
2019-05-21T23:54:32.673Z,19.36
2019-05-21T23:57:05.558Z,19.24
2019-05-21T23:59:36.922Z,19.27
